Snelling, California
Current Conditions -  °F | °C
As of 10:45 AM on Thursday 30 Oct 2014 (Local Time) from KMER Reporting Station
Broken Clouds Broken Clouds  
Wind Chill: 70°   Ceiling: 15000
Heat Index: 70°   Visibility: 10mi
Dew Point: 45°   Wind: 5mph
Humidity: 40%   Direction: NA
Pressure: 29.97"   Gusts: NA
Location:  37.52°N, 120.44°W
Report Text: KMER 301745Z VRB04KT 10SM BKN150 21/07 A2997
Loading
Personal Weather Stations






























Interactive Weather Map
Tropical Storm Tracking
New forecast layout! Learn more

10-Day Weather Forecast

Advertisements
Track Severe Weather on mobile